Goshen, CA

2:46 AM PDT on August 20, 2014 (GMT -0700)
St. Paul's School | Change Station
CLOSE
Current Station
Personal Weather Station
Location: Visalia, CA
Elevation: 322 ft
Nearby Weather Stations

Elev 322 ft 36.34 °N, 119.36 °W | Updated 6 minutes ago

Clear
Clear
65.5 °F
Feels Like 65.5 °F
N
2.7
Wind Variable Wind from SSE

Today
High -- | Low -- °F
--% Chance of Precip.
Yesterday
High -- | Low -- °F
Precip. -- in
6:19 AM 7:41 PM
Waning Crescent, 23% visible
Pressure 29.81 in
Visibility 8.0 miles
Clouds Clear
Dew Point 52 °F
Humidity 61%
Rainfall 0.00 in
Snow Depth Not available.
UV 0 out of 12
Pollen 8.80 out of 12
PM2.5 Moderate
Flu Activity Not available.
METAR KVIS 200935Z AUTO 00000KT 8SM CLR 18/10 A2981 RMK AO1

More Conditions Fewer Conditions

Pressure 29.81 in
Visibility 8.0 miles
Clouds Clear
Dew Point 52 °F
Humidity 61%
Rainfall 0.00 in
Snow Depth Not available.
UV 0 out of 12
Pollen 8.80 out of 12
PM2.5 Moderate
Flu Activity Not available.
METAR KVIS 200935Z AUTO 00000KT 8SM CLR 18/10 A2981 RMK AO1

More Conditions Fewer Conditions

10-Day Weather Forecast

Almanac

Astronomy

Aug. 20, 2014 Rise Set
Actual Time 6:19 AM PDT 7:41 PM PDT
Civil Twilight 5:52 AM PDT 8:08 PM PDT
Nautical Twilight 5:20 AM PDT 8:40 PM PDT
Astronomical Twilight 4:46 AM PDT 9:14 PM PDT
Moon 2:06 AM PDT 4:27 PM PDT
Length of Visible Light 14h 16m
Length of Day
13h 22m
Tomorrow will be 2m 6s shorter.
Waning Crescent, 23% of the Moon is Illuminated
Today
Waning Crescent
Aug 25
New
Sep 2
First Quarter
Sep 8
Full
Sep 15
Last Quarter

Today's Extremes

State Highs State Lows

Community

WunderPhotos

Upload Photos

1,745,604 photos uploaded!

Nearby

Air Quality

  Air Quality AQ Index Pollutant
Yesterday Good
OZONE
Yesterday Good
PM2.5
Current Moderate
PM2.5
Wednesday Moderate
PM2.5
Thursday Moderate
PM2.5
Friday Moderate
PM2.5
Saturday Moderate
PM2.5
Sunday Moderate
PM2.5

Snow Depth

Station Depth Elevation
Leavitt Lake 0 in 9400 ft
Leavitt Meadows 1 in 7200 ft
Blue Lakes 0 in 8000 ft
Monitor Pass 0 in 8350 ft
Forestdale Creek 0 in 8029 ft

Earthquake Activity

City Distance Mag. Time & Date
King City, California 80 miles 2.7 10:26 PM PDT
2014-08-15
Kettleman City, California 39 miles 2.9 11:32 PM PDT
2014-08-14
King City, California 80 miles 2.9 8:01 PM PDT
2014-08-14
Mariposa, California 79 miles 2.5 4:54 AM PDT
2014-08-14
Minimum magnitude displayed is 2.5.

Coastal Water Temperatures

Place Temperature
No Stations Reporting

Nearby Weather Stations